Kezdőlap
METAR-TAF:

METAR-TAF

Repülőterek :

Koror, Babeldaob, Palau

földrajzi szélesség: 07-22N, földrajzi hosszúság: 134-32E, magasság: 54 m

Jelenlegi meteorológiai megfigyelések

A jelentés 24 perccel ezelõtt készült, 14:50 UTC
Szélcsend
Hőmérséklet 24°C
Páratartalom 100%
Légköri nyomás 1010 hPa
Látótávolság: 22.5 km
Szórványos felhőzet 1600 lábon
Szakadozott felhőzet 12000 lábon
Borult 30000 lábon

METAR: PTRO 211450Z 00000KT 14SM SCT016 BKN120 OVC300 24/24 A2983

Idő: 00:14 (15:14 UTC)

Előrejelzés

A jelentés 3 órával és 41 perccel ezelõtt készült, 11:33 UTC
Az előrejelzés 21-én 12 óra UTC és 22-én 12 óra UTC között érvényes
Nyugati szél 5 kt
Látótávolság: 10 km
Szórványos felhőzet 1600 lábon
Szakadozott felhőzet 12000 lábon
Záporok a közelben
21-én 12 óra UTC és 21-én 16 óra UTC között ideiglenes
Szakadozott felhőzet 1600 lábon

TAF: PTRO 211133Z 2112/2212 27005KT P6SM VCSH SCT016 BKN120 TEMPO 2112/2116 BKN016

Meteorológiai megfigyelések és előrejelzések több, mint 4000 repülőtéren (METAR és TAF jelentéseket).

A térképen piros és sárga pontok jelzik az elérhető meteorológiai állomásokat.

Mozgassa az egeret a pont fölött, hogy megjelenjen az állomás neve.

Azután kattintson az időjárási megfigyelések és előrejelzések megtekintéséhez.

A térkép megváltoztatása: kattintson a fekete keresztel jelölt zöld gombra ráközelítéshez, a vonallal jelölt zöld gombra távolításhoz, vagy a zöld nyilakra a szomszédos térképek eléréséhez.


METAR-TAF: